Time;durP1;ratioP1;P1;durP2;ratioP2;P2;SDS_P1;SDS_P2;PMS_P1;PMS_P2;Temp;Humidity;BMP_temperature;BMP_pressure;BME280_temperature;BME280_humidity;BME280_pressure;Samples;Min_cycle;Max_cycle;Signal;HPM_P1;HPM_P2
2021/04/29 00:01:06;;;;;;;1.67;1.58;;;18.00;49.30;;;;;;5076732;28;20184;-71
2021/04/29 00:03:34;;;;;;;2.40;1.70;;;18.00;49.40;;;;;;5075965;28;20177;-70
2021/04/29 00:06:00;;;;;;;1.80;1.63;;;18.00;49.30;;;;;;5094841;28;20625;-70
2021/04/29 00:08:26;;;;;;;2.15;1.50;;;18.00;49.40;;;;;;5076306;28;20275;-71
2021/04/29 00:10:51;;;;;;;1.30;1.20;;;18.00;49.30;;;;;;5076555;28;20618;-70
2021/04/29 00:13:17;;;;;;;1.73;1.60;;;18.00;49.40;;;;;;5094734;28;20178;-70
2021/04/29 00:15:44;;;;;;;1.50;1.40;;;18.00;49.40;;;;;;5075674;28;20181;-69
2021/04/29 00:18:10;;;;;;;1.90;1.63;;;18.00;49.40;;;;;;5094829;28;20176;-70
2021/04/29 00:20:35;;;;;;;1.95;1.55;;;18.00;49.40;;;;;;5076144;28;20260;-69
2021/04/29 00:23:01;;;;;;;2.28;1.80;;;18.00;50.10;;;;;;5075886;28;20185;-70
2021/04/29 00:25:27;;;;;;;1.73;1.63;;;18.00;49.50;;;;;;5076306;28;20206;-71
2021/04/29 00:27:52;;;;;;;1.75;1.45;;;18.00;49.40;;;;;;5094188;28;20205;-71
2021/04/29 00:30:18;;;;;;;1.63;1.42;;;17.90;49.40;;;;;;5093653;28;20221;-70
2021/04/29 00:32:43;;;;;;;1.75;1.60;;;17.90;49.40;;;;;;5076118;28;20170;-70
2021/04/29 00:35:10;;;;;;;1.63;1.52;;;18.00;49.50;;;;;;5094150;28;20249;-70
2021/04/29 00:37:35;;;;;;;1.73;1.45;;;18.00;49.50;;;;;;5058619;28;20189;-70
2021/04/29 00:40:01;;;;;;;1.67;1.58;;;18.00;49.50;;;;;;5093514;28;20166;-70
2021/04/29 00:42:27;;;;;;;1.85;1.70;;;18.00;49.50;;;;;;5094196;28;20173;-70
2021/04/29 00:44:52;;;;;;;1.80;1.70;;;17.90;49.50;;;;;;5093198;28;20509;-71
2021/04/29 00:47:18;;;;;;;1.70;1.60;;;18.00;49.50;;;;;;5094014;28;20289;-70
2021/04/29 00:49:43;;;;;;;1.70;1.60;;;17.90;49.50;;;;;;5075646;28;20202;-71
2021/04/29 00:52:09;;;;;;;1.63;1.52;;;17.90;49.50;;;;;;5058792;28;20185;-72
2021/04/29 00:54:35;;;;;;;1.90;1.67;;;17.90;49.50;;;;;;5093623;28;20253;-70
2021/04/29 00:57:00;;;;;;;3.03;1.60;;;17.90;49.50;;;;;;5075962;28;20158;-72
2021/04/29 00:59:26;;;;;;;1.70;1.60;;;17.90;49.50;;;;;;5075149;28;20637;-70
2021/04/29 01:01:55;;;;;;;2.85;2.00;;;17.90;49.50;;;;;;5075476;28;20250;-71
2021/04/29 01:04:26;;;;;;;1.52;1.42;;;17.90;49.60;;;;;;5075634;28;20166;-71
2021/04/29 01:06:59;;;;;;;1.98;1.65;;;17.90;49.50;;;;;;5058001;28;20227;-70
2021/04/29 01:09:46;;;;;;;1.52;1.42;;;17.90;49.50;;;;;;5059187;28;20262;-70
2021/04/29 01:12:16;;;;;;;1.98;1.80;;;17.90;49.50;;;;;;5093099;28;20194;-70
2021/04/29 01:14:41;;;;;;;3.63;1.92;;;17.80;49.50;;;;;;5058620;28;20218;-70
2021/04/29 01:17:07;;;;;;;2.00;1.70;;;17.90;49.60;;;;;;5059152;28;20198;-71
2021/04/29 01:19:44;;;;;;;1.98;1.73;;;17.90;49.50;;;;;;5074514;28;20162;-70
2021/04/29 01:22:11;;;;;;;1.75;1.60;;;17.80;49.50;;;;;;5059333;28;20174;-69
2021/04/29 01:25:05;;;;;;;1.83;1.58;;;17.90;49.60;;;;;;5092927;28;20169;-70
2021/04/29 01:27:30;;;;;;;1.80;1.50;;;17.90;49.60;;;;;;5061003;28;20197;-69
2021/04/29 01:29:56;;;;;;;1.70;1.60;;;17.80;49.60;;;;;;5058517;28;20312;-72
2021/04/29 01:32:22;;;;;;;1.77;1.67;;;17.80;49.50;;;;;;5058681;28;20662;-70
2021/04/29 01:34:47;;;;;;;1.67;1.58;;;17.80;49.50;;;;;;5057675;28;20166;-71
2021/04/29 01:37:13;;;;;;;1.70;1.60;;;17.80;49.50;;;;;;5058846;28;20204;-70
2021/04/29 01:39:39;;;;;;;1.33;1.23;;;17.80;49.50;;;;;;5092981;28;20774;-69
2021/04/29 01:42:05;;;;;;;1.80;1.50;;;17.80;49.60;;;;;;5092485;28;20174;-71
2021/04/29 01:44:30;;;;;;;1.65;1.55;;;17.80;49.50;;;;;;5074844;28;20532;-70
2021/04/29 01:46:58;;;;;;;2.05;1.90;;;17.80;49.60;;;;;;5057942;28;20269;-70
2021/04/29 01:49:24;;;;;;;1.60;1.50;;;17.80;49.60;;;;;;5058279;28;20169;-70
2021/04/29 01:51:50;;;;;;;1.85;1.70;;;17.80;49.60;;;;;;5057975;28;20227;-69
2021/04/29 01:54:17;;;;;;;1.98;1.77;;;17.80;49.60;;;;;;5057766;28;20196;-72
2021/04/29 01:56:43;;;;;;;2.13;1.60;;;17.80;49.60;;;;;;5041666;28;20177;-70
2021/04/29 01:59:08;;;;;;;1.77;1.48;;;17.80;49.60;;;;;;5058373;28;20496;-71
2021/04/29 02:01:38;;;;;;;1.63;1.52;;;17.80;49.60;;;;;;5057350;28;20177;-71
2021/04/29 02:04:04;;;;;;;1.70;1.60;;;17.80;49.60;;;;;;5092830;28;20169;-71
2021/04/29 02:06:29;;;;;;;2.17;1.40;;;17.80;49.60;;;;;;5074466;28;20189;-70
2021/04/29 02:08:55;;;;;;;2.13;1.70;;;17.70;49.60;;;;;;5057641;28;20553;-69
2021/04/29 02:11:20;;;;;;;1.88;1.67;;;17.70;49.60;;;;;;5092607;28;20644;-70
2021/04/29 02:13:47;;;;;;;1.70;1.60;;;17.70;49.60;;;;;;5057790;28;20593;-69
2021/04/29 02:16:17;;;;;;;1.80;1.60;;;17.70;49.60;;;;;;5057699;28;20181;-70
2021/04/29 02:18:48;;;;;;;2.13;1.92;;;17.70;49.60;;;;;;5074364;28;20181;-70
2021/04/29 02:21:20;;;;;;;1.77;1.67;;;17.70;49.60;;;;;;5058341;28;20166;-70
2021/04/29 02:23:47;;;;;;;1.48;1.38;;;17.70;49.60;;;;;;5074209;28;20504;-71
2021/04/29 02:26:19;;;;;;;2.03;1.73;;;17.70;49.60;;;;;;5092738;28;20207;-71
2021/04/29 02:28:44;;;;;;;1.95;1.60;;;17.70;49.60;;;;;;5058219;28;20212;-71
2021/04/29 02:31:10;;;;;;;1.50;1.40;;;17.70;49.60;;;;;;5040794;28;20261;-70
2021/04/29 02:33:36;;;;;;;1.60;1.50;;;17.70;49.60;;;;;;5057686;28;20196;-70
2021/04/29 02:36:03;;;;;;;1.70;1.60;;;17.70;49.60;;;;;;5041126;28;20620;-71
2021/04/29 02:38:29;;;;;;;2.00;1.60;;;17.60;49.50;;;;;;5073871;28;20577;-70
2021/04/29 02:40:54;;;;;;;1.50;1.40;;;17.70;49.60;;;;;;5074407;28;20174;-70
2021/04/29 02:43:20;;;;;;;1.52;1.42;;;17.70;49.60;;;;;;5057390;28;20162;-71
2021/04/29 02:45:45;;;;;;;1.95;1.80;;;17.70;49.60;;;;;;5057308;28;20239;-70
2021/04/29 02:48:11;;;;;;;2.30;1.67;;;17.60;49.60;;;;;;5040914;28;20300;-72
2021/04/29 02:50:43;;;;;;;1.77;1.67;;;17.60;49.50;;;;;;5040313;28;20170;-72
2021/04/29 02:53:09;;;;;;;1.50;1.40;;;17.60;49.60;;;;;;5075496;28;20702;-72
2021/04/29 02:55:35;;;;;;;2.00;1.80;;;17.60;49.50;;;;;;5057386;28;20166;-69
2021/04/29 02:58:02;;;;;;;2.58;1.75;;;17.60;49.60;;;;;;5057355;28;20295;-71
2021/04/29 03:00:28;;;;;;;1.80;1.70;;;17.60;49.60;;;;;;5092045;28;20582;-70
2021/04/29 03:02:54;;;;;;;1.60;1.50;;;17.60;49.50;;;;;;5074364;28;20253;-70
2021/04/29 03:05:19;;;;;;;2.05;1.85;;;17.60;49.60;;;;;;5095418;28;20189;-70
2021/04/29 03:07:45;;;;;;;1.85;1.70;;;17.60;49.60;;;;;;5077784;28;20672;-70
2021/04/29 03:10:11;;;;;;;2.15;2.05;;;17.60;49.60;;;;;;5077994;28;20176;-71
2021/04/29 03:12:37;;;;;;;1.70;1.60;;;17.60;49.60;;;;;;5077079;28;20165;-70
2021/04/29 03:15:04;;;;;;;2.08;1.90;;;17.60;49.60;;;;;;5095989;28;20184;-70
2021/04/29 03:17:29;;;;;;;1.70;1.60;;;17.60;49.60;;;;;;5095518;28;20260;-70
2021/04/29 03:19:55;;;;;;;1.80;1.70;;;17.60;49.90;;;;;;5095145;28;20208;-71
2021/04/29 03:22:20;;;;;;;2.33;2.05;;;17.60;49.60;;;;;;5095828;28;20162;-70
2021/04/29 03:24:48;;;;;;;2.13;1.92;;;17.60;49.50;;;;;;5095027;28;20534;-68
2021/04/29 03:27:14;;;;;;;1.60;1.50;;;17.60;49.60;;;;;;5077221;28;20578;-71
2021/04/29 03:29:39;;;;;;;1.75;1.65;;;17.60;49.60;;;;;;5095018;28;20297;-69
2021/04/29 03:32:05;;;;;;;2.55;2.13;;;17.60;49.60;;;;;;5095587;28;20690;-72
2021/04/29 03:34:31;;;;;;;2.00;1.80;;;17.60;49.60;;;;;;5094453;28;20166;-70
2021/04/29 03:36:56;;;;;;;1.77;1.67;;;17.60;49.60;;;;;;5077600;28;20219;-70
2021/04/29 03:39:22;;;;;;;1.70;1.60;;;17.60;49.60;;;;;;5077471;28;20583;-70
2021/04/29 03:41:47;;;;;;;2.15;1.83;;;17.50;49.50;;;;;;5094378;28;20166;-70
2021/04/29 03:44:13;;;;;;;1.73;1.63;;;17.50;49.50;;;;;;5043833;28;20180;-70
2021/04/29 03:46:38;;;;;;;1.70;1.60;;;17.50;49.60;;;;;;5042925;28;20833;-70
2021/04/29 03:49:04;;;;;;;1.75;1.65;;;17.50;49.60;;;;;;5077191;28;20185;-70
2021/04/29 03:51:30;;;;;;;2.17;1.73;;;17.50;49.60;;;;;;5076859;28;20621;-71
2021/04/29 03:53:55;;;;;;;2.58;1.88;;;17.50;49.60;;;;;;5094473;28;20193;-69
2021/04/29 03:56:21;;;;;;;2.08;1.88;;;17.50;49.60;;;;;;5095158;28;20675;-70
2021/04/29 03:58:46;;;;;;;2.10;2.00;;;17.50;49.60;;;;;;5076749;28;20257;-71
2021/04/29 04:01:12;;;;;;;1.90;1.70;;;17.50;49.60;;;;;;5094321;28;20617;-71
2021/04/29 04:03:38;;;;;;;2.25;2.05;;;17.50;49.60;;;;;;5059964;28;20231;-70
2021/04/29 04:06:03;;;;;;;1.80;1.70;;;17.50;49.50;;;;;;5094807;28;20170;-71
2021/04/29 04:08:29;;;;;;;2.60;1.80;;;17.50;49.60;;;;;;5093971;28;20213;-70
2021/04/29 04:10:54;;;;;;;1.83;1.73;;;17.50;49.60;;;;;;5094841;28;20267;-70
2021/04/29 04:13:20;;;;;;;1.80;1.70;;;17.50;49.60;;;;;;5094688;28;20184;-70
2021/04/29 04:15:46;;;;;;;1.83;1.73;;;17.50;49.60;;;;;;5074547;28;20166;-70
2021/04/29 04:18:12;;;;;;;1.88;1.77;;;17.50;49.60;;;;;;5059817;28;20174;-71
2021/04/29 04:20:38;;;;;;;1.90;1.80;;;17.40;49.60;;;;;;5094257;28;20170;-70
2021/04/29 04:23:04;;;;;;;2.30;2.10;;;17.40;49.50;;;;;;5059323;28;20698;-69
2021/04/29 04:25:30;;;;;;;2.10;1.90;;;17.40;49.60;;;;;;5059415;28;20177;-72
2021/04/29 04:27:55;;;;;;;3.42;2.20;;;17.40;49.60;;;;;;5059723;28;20206;-72
2021/04/29 04:30:21;;;;;;;2.20;1.90;;;17.50;49.60;;;;;;5093892;28;20293;-69
2021/04/29 04:32:47;;;;;;;2.58;2.28;;;17.40;49.60;;;;;;5094182;28;20538;-69
2021/04/29 04:35:13;;;;;;;1.70;1.60;;;17.40;49.60;;;;;;5059597;28;20535;-69
2021/04/29 04:37:39;;;;;;;2.10;1.90;;;17.40;49.60;;;;;;5058681;28;20203;-70
2021/04/29 04:40:05;;;;;;;1.90;1.80;;;17.40;49.70;;;;;;5094269;28;20166;-70
2021/04/29 04:42:31;;;;;;;2.47;2.28;;;17.40;49.70;;;;;;5075859;28;20621;-69
2021/04/29 04:44:56;;;;;;;2.72;1.90;;;17.40;49.70;;;;;;5093410;28;20166;-71
2021/04/29 04:47:22;;;;;;;1.83;1.67;;;17.40;49.70;;;;;;5094197;28;20323;-70
2021/04/29 04:49:47;;;;;;;2.45;2.10;;;17.40;49.70;;;;;;5093251;28;20162;-69
2021/04/29 04:52:13;;;;;;;1.63;1.52;;;17.40;49.60;;;;;;5075983;28;20184;-72
2021/04/29 04:54:38;;;;;;;2.63;2.00;;;17.40;49.70;;;;;;5075581;28;20264;-72
2021/04/29 04:57:05;;;;;;;2.35;2.15;;;17.40;49.70;;;;;;5075304;28;20629;-70
2021/04/29 04:59:30;;;;;;;2.20;2.10;;;17.40;49.70;;;;;;5093523;28;20657;-70
2021/04/29 05:01:56;;;;;;;3.10;2.15;;;17.40;49.80;;;;;;5058972;28;20189;-70
2021/04/29 05:04:25;;;;;;;4.45;2.45;;;17.40;49.80;;;;;;5075064;28;20177;-70
2021/04/29 05:06:51;;;;;;;1.90;1.80;;;17.40;49.70;;;;;;5075532;28;20185;-70
2021/04/29 05:09:18;;;;;;;1.85;1.70;;;17.50;49.80;;;;;;5075601;28;20664;-70
2021/04/29 05:11:44;;;;;;;2.13;1.70;;;17.50;49.70;;;;;;5074956;28;20166;-69
2021/04/29 05:14:10;;;;;;;1.95;1.85;;;17.60;49.80;;;;;;5093485;28;20227;-69
2021/04/29 05:16:35;;;;;;;2.25;2.05;;;17.60;49.60;;;;;;5093312;28;20166;-69
2021/04/29 05:19:01;;;;;;;1.90;1.80;;;17.60;49.50;;;;;;5092973;28;20252;-70
2021/04/29 05:21:26;;;;;;;1.90;1.80;;;17.60;49.50;;;;;;5093417;28;20256;-70
2021/04/29 05:23:52;;;;;;;1.80;1.70;;;17.60;49.50;;;;;;5093028;28;20204;-69
2021/04/29 05:26:18;;;;;;;1.75;1.65;;;17.60;49.50;;;;;;5074353;28;20178;-71
2021/04/29 05:28:43;;;;;;;2.10;2.00;;;17.60;49.50;;;;;;5092745;28;20201;-70
2021/04/29 05:31:09;;;;;;;2.60;2.10;;;17.60;49.40;;;;;;5075378;28;20234;-70
2021/04/29 05:33:34;;;;;;;2.00;1.90;;;17.60;49.50;;;;;;5092428;28;20181;-69
2021/04/29 05:36:00;;;;;;;2.10;1.90;;;17.60;49.40;;;;;;5058531;28;20166;-70
2021/04/29 05:38:25;;;;;;;2.42;1.85;;;17.60;49.40;;;;;;5058548;28;20253;-70
2021/04/29 05:40:51;;;;;;;1.77;1.67;;;17.60;49.50;;;;;;5074173;28;20235;-70
2021/04/29 05:43:17;;;;;;;2.00;1.90;;;17.60;49.50;;;;;;5075161;28;20248;-70
2021/04/29 05:45:42;;;;;;;2.17;1.98;;;17.60;49.50;;;;;;5092678;28;20690;-70
2021/04/29 05:48:08;;;;;;;2.10;1.95;;;17.60;49.50;;;;;;5057788;28;20669;-70
2021/04/29 05:50:33;;;;;;;1.80;1.70;;;17.60;49.50;;;;;;5092745;28;20527;-69
2021/04/29 05:52:59;;;;;;;1.75;1.65;;;17.50;49.50;;;;;;5093027;28;20173;-68
2021/04/29 05:55:24;;;;;;;2.15;2.03;;;17.50;49.50;;;;;;5092246;28;20177;-69
2021/04/29 05:57:50;;;;;;;1.90;1.80;;;17.60;49.60;;;;;;5074684;28;20192;-70
2021/04/29 06:00:16;;;;;;;2.20;2.00;;;17.60;49.50;;;;;;5091965;28;20170;-70
2021/04/29 06:02:42;;;;;;;2.40;2.15;;;17.60;49.50;;;;;;5074583;28;20186;-70
2021/04/29 06:05:07;;;;;;;2.10;1.90;;;17.60;49.50;;;;;;5074764;28;20208;-70
2021/04/29 06:07:33;;;;;;;2.22;2.00;;;17.60;49.50;;;;;;5074017;28;20280;-69
2021/04/29 06:09:59;;;;;;;2.00;1.90;;;17.60;49.40;;;;;;5074710;28;20637;-70
2021/04/29 06:12:24;;;;;;;1.65;1.55;;;17.60;49.50;;;;;;5074882;28;20181;-69
2021/04/29 06:14:50;;;;;;;1.88;1.77;;;17.50;49.50;;;;;;5073789;28;20655;-69
2021/04/29 06:17:16;;;;;;;2.85;1.80;;;17.50;49.60;;;;;;5058110;28;20669;-70
2021/04/29 06:19:41;;;;;;;2.15;1.95;;;17.50;49.60;;;;;;5057514;28;20552;-69
2021/04/29 06:22:07;;;;;;;2.22;2.03;;;17.50;49.60;;;;;;5057377;28;20617;-69
2021/04/29 06:24:32;;;;;;;1.98;1.88;;;17.40;49.60;;;;;;5092180;28;20198;-69
2021/04/29 06:26:58;;;;;;;2.50;2.25;;;17.40;49.60;;;;;;5057875;28;20177;-69
2021/04/29 06:29:23;;;;;;;2.13;2.00;;;17.40;49.70;;;;;;5091740;28;20225;-69
2021/04/29 06:31:49;;;;;;;2.28;2.05;;;17.50;49.70;;;;;;5092141;28;20651;-69
2021/04/29 06:34:15;;;;;;;2.00;1.90;;;17.40;49.80;;;;;;5074538;28;20177;-70
2021/04/29 06:36:41;;;;;;;1.80;1.70;;;17.40;49.90;;;;;;5091301;28;20194;-70
2021/04/29 06:39:06;;;;;;;2.25;1.95;;;17.40;49.90;;;;;;5094585;28;20166;-70
2021/04/29 06:41:32;;;;;;;1.95;1.83;;;17.50;50.00;;;;;;5077997;28;20196;-70
2021/04/29 06:43:58;;;;;;;1.90;1.80;;;17.50;49.90;;;;;;5077442;28;20651;-70
2021/04/29 06:46:23;;;;;;;2.10;1.92;;;17.50;49.90;;;;;;5096349;28;20177;-70
2021/04/29 06:48:49;;;;;;;2.38;1.80;;;17.50;49.80;;;;;;5078378;28;20209;-69
2021/04/29 06:51:14;;;;;;;1.73;1.63;;;17.50;49.80;;;;;;5095766;28;20446;-72
2021/04/29 06:53:40;;;;;;;2.28;2.08;;;17.50;49.80;;;;;;5095883;28;20170;-68
2021/04/29 06:56:06;;;;;;;2.28;2.08;;;17.50;49.80;;;;;;5078210;28;20525;-71
2021/04/29 06:58:33;;;;;;;2.15;1.95;;;17.50;49.80;;;;;;5060652;28;20219;-69
2021/04/29 07:00:59;;;;;;;2.35;2.00;;;17.50;49.80;;;;;;5078254;28;20575;-70
2021/04/29 07:03:25;;;;;;;1.85;1.75;;;17.50;50.10;;;;;;5044087;28;20165;-70
2021/04/29 07:05:50;;;;;;;2.67;2.00;;;17.50;49.90;;;;;;5077541;28;20174;-73
2021/04/29 07:08:16;;;;;;;2.28;2.08;;;17.50;50.00;;;;;;5077917;28;20210;-74
2021/04/29 07:10:42;;;;;;;2.00;1.70;;;17.50;50.00;;;;;;5043531;28;20533;-73
2021/04/29 07:13:07;;;;;;;3.95;2.13;;;17.50;50.00;;;;;;5077963;28;20185;-72
2021/04/29 07:15:33;;;;;;;2.30;2.10;;;17.50;50.00;;;;;;5077516;28;20174;-71
2021/04/29 07:17:59;;;;;;;2.60;2.40;;;17.50;50.00;;;;;;5077171;28;20181;-71
2021/04/29 07:20:25;;;;;;;2.67;2.10;;;17.50;50.10;;;;;;5060847;28;20273;-71
2021/04/29 07:22:50;;;;;;;3.08;2.30;;;17.50;50.00;;;;;;5077528;28;20303;-72
2021/04/29 07:25:16;;;;;;;5.93;3.03;;;17.50;50.70;;;;;;5094877;28;20174;-71
2021/04/29 07:27:42;;;;;;;3.95;2.08;;;17.50;50.10;;;;;;5077327;28;20535;-71
2021/04/29 07:30:08;;;;;;;2.58;2.38;;;17.50;50.80;;;;;;5095460;28;20221;-73
2021/04/29 07:32:34;;;;;;;6.05;2.20;;;17.50;50.10;;;;;;5094623;28;20177;-73
2021/04/29 07:35:00;;;;;;;3.70;2.38;;;17.50;50.20;;;;;;5077387;28;20186;-72
2021/04/29 07:37:25;;;;;;;3.83;2.42;;;17.60;50.30;;;;;;5077470;28;20241;-73
2021/04/29 07:39:51;;;;;;;3.80;2.67;;;17.60;50.30;;;;;;5094567;28;20641;-71
2021/04/29 07:42:16;;;;;;;2.35;2.15;;;17.60;50.60;;;;;;5060599;28;20174;-73
2021/04/29 07:44:42;;;;;;;3.67;2.63;;;17.70;50.40;;;;;;5095104;28;20253;-72
2021/04/29 07:47:07;;;;;;;5.00;2.58;;;17.70;50.50;;;;;;5094667;28;20693;-73
2021/04/29 07:49:33;;;;;;;2.72;2.50;;;17.70;50.50;;;;;;5076413;28;20589;-71
2021/04/29 07:51:59;;;;;;;4.10;2.50;;;17.70;50.60;;;;;;5060304;28;20181;-72
2021/04/29 07:54:24;;;;;;;3.00;2.08;;;17.70;50.70;;;;;;5094493;28;20169;-73
2021/04/29 07:56:50;;;;;;;4.22;2.47;;;17.70;50.70;;;;;;5076871;28;20177;-73
2021/04/29 07:59:16;;;;;;;3.88;2.50;;;17.70;50.70;;;;;;5094977;28;20173;-72
2021/04/29 08:01:41;;;;;;;4.28;2.22;;;17.70;50.80;;;;;;5059399;28;20173;-69
2021/04/29 08:04:07;;;;;;;4.20;2.40;;;17.70;51.00;;;;;;5076207;28;20621;-70
2021/04/29 08:06:33;;;;;;;3.28;2.28;;;17.80;51.00;;;;;;5075977;28;20161;-69
2021/04/29 08:08:58;;;;;;;4.30;2.20;;;17.80;51.00;;;;;;5075765;28;20209;-72
2021/04/29 08:11:24;;;;;;;3.50;2.50;;;17.80;51.00;;;;;;5094410;28;20643;-72
2021/04/29 08:13:50;;;;;;;5.57;2.63;;;17.80;51.00;;;;;;5093634;28;20174;-71
2021/04/29 08:16:16;;;;;;;3.42;2.25;;;17.80;51.00;;;;;;5076940;28;20165;-72
2021/04/29 08:18:42;;;;;;;4.45;2.63;;;17.80;51.10;;;;;;5076487;28;20622;-68
2021/04/29 08:21:08;;;;;;;4.90;2.30;;;17.80;51.10;;;;;;5093887;28;20249;-67
2021/04/29 08:23:34;;;;;;;3.15;2.30;;;17.80;51.10;;;;;;5075989;28;20174;-71
2021/04/29 08:26:00;;;;;;;4.80;2.28;;;17.80;51.10;;;;;;5076404;28;20656;-70
2021/04/29 08:28:25;;;;;;;5.65;2.47;;;17.80;51.10;;;;;;5059061;28;20684;-69
2021/04/29 08:30:51;;;;;;;2.42;1.90;;;17.80;51.10;;;;;;5059104;28;20226;-67
2021/04/29 08:33:17;;;;;;;6.03;2.10;;;17.80;51.10;;;;;;5059587;28;20625;-67
2021/04/29 08:35:42;;;;;;;3.95;2.28;;;17.80;51.20;;;;;;5075024;28;20241;-69
2021/04/29 08:38:08;;;;;;;3.03;2.10;;;17.80;51.30;;;;;;5059748;28;20530;-72
2021/04/29 08:40:33;;;;;;;4.00;2.25;;;17.80;51.20;;;;;;5075748;28;20170;-71
2021/04/29 08:42:59;;;;;;;3.00;2.28;;;17.80;51.30;;;;;;5093462;28;20193;-71
2021/04/29 08:45:25;;;;;;;4.95;2.35;;;17.80;51.40;;;;;;5076057;28;20193;-71
2021/04/29 08:47:52;;;;;;;2.70;2.20;;;17.80;51.40;;;;;;5093558;28;20258;-70
2021/04/29 08:50:18;;;;;;;4.38;2.55;;;17.80;51.40;;;;;;5093331;28;20181;-70
2021/04/29 08:52:44;;;;;;;3.05;2.30;;;17.80;51.40;;;;;;5075632;28;20516;-72
2021/04/29 08:55:14;;;;;;;3.47;2.10;;;17.80;51.40;;;;;;5075749;28;20191;-70
2021/04/29 08:57:39;;;;;;;6.85;2.58;;;17.80;51.50;;;;;;5075615;28;20170;-72
2021/04/29 09:00:06;;;;;;;2.38;2.17;;;17.80;51.50;;;;;;5075535;28;20174;-63
2021/04/29 09:02:32;;;;;;;5.75;2.47;;;17.80;51.40;;;;;;5074583;28;20314;-62
2021/04/29 09:05:08;;;;;;;5.43;2.40;;;17.80;51.50;;;;;;5075013;28;20242;-64
2021/04/29 09:07:33;;;;;;;5.35;2.60;;;17.80;51.40;;;;;;5058695;28;20295;-64
2021/04/29 09:09:59;;;;;;;2.75;1.95;;;17.80;51.50;;;;;;5075380;28;20253;-63
2021/04/29 09:12:32;;;;;;;4.30;2.10;;;17.80;51.50;;;;;;5092377;28;20186;-63
2021/04/29 09:14:58;;;;;;;4.60;2.47;;;17.80;51.50;;;;;;5058967;28;20539;-64
2021/04/29 09:17:24;;;;;;;4.55;2.67;;;17.80;51.50;;;;;;5092838;28;20170;-65
2021/04/29 09:19:50;;;;;;;2.30;2.10;;;17.80;51.50;;;;;;5058431;28;20181;-61
2021/04/29 09:22:17;;;;;;;3.72;2.28;;;17.80;51.50;;;;;;5075501;28;20158;-61
2021/04/29 09:24:43;;;;;;;8.02;2.60;;;17.80;51.50;;;;;;5074487;28;20193;-62
2021/04/29 09:27:14;;;;;;;12.82;3.30;;;17.80;51.50;;;;;;5093446;28;20244;-65
2021/04/29 09:29:57;;;;;;;3.40;2.45;;;17.80;51.50;;;;;;5074991;28;20228;-65
2021/04/29 09:32:29;;;;;;;2.60;2.10;;;17.80;51.50;;;;;;5074600;28;20166;-63
2021/04/29 09:34:55;;;;;;;3.72;2.33;;;17.80;51.60;;;;;;5092979;28;20172;-63
2021/04/29 09:37:27;;;;;;;4.50;2.30;;;17.80;51.60;;;;;;5058406;28;20170;-63
2021/04/29 09:39:52;;;;;;;5.00;2.42;;;17.80;51.60;;;;;;5092440;28;20185;-63
2021/04/29 09:42:29;;;;;;;3.40;2.35;;;17.80;51.60;;;;;;5093033;28;20279;-62
2021/04/29 09:44:54;;;;;;;3.13;2.00;;;17.80;51.60;;;;;;5075234;28;20162;-61
2021/04/29 09:47:20;;;;;;;3.42;2.33;;;17.80;51.60;;;;;;5092504;28;20251;-66
2021/04/29 09:49:45;;;;;;;4.50;2.17;;;17.80;51.60;;;;;;5058143;28;20176;-67
2021/04/29 09:52:21;;;;;;;5.63;2.47;;;17.80;51.60;;;;;;5074828;28;20169;-63
2021/04/29 09:54:46;;;;;;;3.25;2.53;;;17.70;51.50;;;;;;5074695;28;20208;-58
2021/04/29 09:57:16;;;;;;;5.28;2.90;;;17.70;51.70;;;;;;5093192;28;20188;-63
2021/04/29 09:59:43;;;;;;;3.45;1.95;;;17.70;51.60;;;;;;5055652;28;20173;-62
2021/04/29 10:02:13;;;;;;;3.78;2.20;;;17.70;51.50;;;;;;5075044;28;20648;-62
2021/04/29 10:04:39;;;;;;;4.35;2.53;;;17.70;51.60;;;;;;5074458;28;20544;-70
2021/04/29 10:07:05;;;;;;;3.58;2.60;;;17.80;51.50;;;;;;5074089;28;20206;-62
2021/04/29 10:09:31;;;;;;;2.58;2.30;;;17.80;51.50;;;;;;5092614;28;20681;-68
2021/04/29 10:12:09;;;;;;;4.75;2.63;;;17.80;51.50;;;;;;5058403;28;20188;-67
2021/04/29 10:14:53;;;;;;;4.45;2.45;;;17.70;51.50;;;;;;5062562;28;20680;-66
2021/04/29 10:17:20;;;;;;;3.90;2.28;;;17.80;51.50;;;;;;5078788;28;20466;-68
2021/04/29 10:19:47;;;;;;;2.42;2.13;;;17.80;51.40;;;;;;5061846;28;20572;-67
2021/04/29 10:22:13;;;;;;;6.93;2.53;;;17.80;51.40;;;;;;5061647;28;20204;-68
2021/04/29 10:24:43;;;;;;;2.85;2.13;;;17.80;51.30;;;;;;5061634;28;20170;-66
2021/04/29 10:27:09;;;;;;;5.70;2.40;;;17.90;51.40;;;;;;5078868;28;20640;-68
2021/04/29 10:29:35;;;;;;;4.07;2.33;;;17.80;51.40;;;;;;5077523;28;20173;-67
2021/04/29 10:32:02;;;;;;;3.88;1.98;;;17.90;51.40;;;;;;5078690;28;20206;-67
2021/04/29 10:34:43;;;;;;;2.60;2.20;;;17.90;52.10;;;;;;5077826;28;20254;-72
2021/04/29 10:37:19;;;;;;;2.85;2.05;;;17.90;51.50;;;;;;5046241;28;20671;-68
2021/04/29 10:39:55;;;;;;;3.17;2.03;;;17.90;51.70;;;;;;5078159;28;20697;-69
2021/04/29 10:42:21;;;;;;;3.05;2.03;;;17.90;51.60;;;;;;5095741;28;20169;-68
2021/04/29 10:44:51;;;;;;;3.08;2.17;;;17.90;51.50;;;;;;5064257;28;20226;-71
2021/04/29 10:47:22;;;;;;;4.97;2.40;;;17.90;51.60;;;;;;5065363;28;20193;-70
2021/04/29 10:49:48;;;;;;;2.50;2.30;;;17.80;51.50;;;;;;5077388;28;20276;-71
2021/04/29 10:52:13;;;;;;;5.50;2.80;;;17.80;51.50;;;;;;5061542;28;20303;-71
2021/04/29 10:54:54;;;;;;;4.60;2.47;;;17.80;51.60;;;;;;5096335;28;20629;-70
2021/04/29 10:57:19;;;;;;;5.10;2.63;;;17.80;51.60;;;;;;5075635;28;20167;-71
2021/04/29 10:59:48;;;;;;;6.05;2.75;;;17.80;51.50;;;;;;5077948;28;20170;-70
2021/04/29 11:02:26;;;;;;;2.47;2.10;;;17.70;51.50;;;;;;5078324;28;20170;-70
2021/04/29 11:04:52;;;;;;;2.83;2.50;;;17.70;51.50;;;;;;5094996;28;20191;-69
2021/04/29 11:07:19;;;;;;;2.70;2.28;;;17.70;51.60;;;;;;5077822;28;20194;-71
2021/04/29 11:09:59;;;;;;;2.17;1.95;;;17.70;51.60;;;;;;5060258;28;20256;-70
2021/04/29 11:12:49;;;;;;;3.00;2.10;;;17.70;51.60;;;;;;5095971;28;20294;-71
2021/04/29 11:15:24;;;;;;;3.25;2.00;;;17.70;51.50;;;;;;5095710;28;20205;-71
2021/04/29 11:18:05;;;;;;;4.13;2.03;;;17.70;51.50;;;;;;5077430;28;20169;-69
2021/04/29 11:20:54;;;;;;;4.75;2.42;;;17.70;51.50;;;;;;5078011;28;20162;-68
2021/04/29 11:23:27;;;;;;;3.25;2.00;;;17.70;51.50;;;;;;5077638;28;20184;-69
2021/04/29 11:26:15;;;;;;;3.50;2.22;;;17.70;51.60;;;;;;5094329;28;20170;-69
2021/04/29 11:28:41;;;;;;;3.08;2.10;;;17.70;51.60;;;;;;5061595;28;20729;-71
2021/04/29 11:31:07;;;;;;;3.78;2.42;;;17.70;51.60;;;;;;5060138;28;20229;-72
2021/04/29 11:33:34;;;;;;;3.00;2.55;;;17.70;51.60;;;;;;5077178;28;20181;-69
2021/04/29 11:36:01;;;;;;;2.92;2.00;;;17.70;51.60;;;;;;5095390;28;20162;-70
2021/04/29 11:38:27;;;;;;;3.33;2.20;;;17.80;51.60;;;;;;5060414;28;20173;-68
2021/04/29 11:40:52;;;;;;;2.42;2.22;;;17.80;51.60;;;;;;5095321;28;20170;-68
2021/04/29 11:43:18;;;;;;;2.38;2.17;;;17.80;51.60;;;;;;5095383;28;20641;-69
2021/04/29 11:45:45;;;;;;;2.45;2.08;;;17.80;51.50;;;;;;5059660;28;20170;-69
2021/04/29 11:48:14;;;;;;;2.40;2.17;;;17.80;51.60;;;;;;5077437;28;20241;-71
2021/04/29 11:50:40;;;;;;;2.60;1.92;;;17.80;51.60;;;;;;5060551;28;20174;-71
2021/04/29 11:53:16;;;;;;;1.95;1.85;;;17.80;51.60;;;;;;5076304;28;20894;-71
2021/04/29 11:55:43;;;;;;;2.58;2.33;;;17.70;51.60;;;;;;5076749;28;20613;-69
2021/04/29 11:58:12;;;;;;;2.17;1.98;;;17.80;51.60;;;;;;5060433;28;20261;-69
2021/04/29 12:00:40;;;;;;;3.00;2.40;;;17.80;51.70;;;;;;5076493;28;20166;-69
2021/04/29 12:03:09;;;;;;;3.35;2.45;;;17.80;51.70;;;;;;5060260;28;20192;-72
2021/04/29 12:05:39;;;;;;;2.25;2.05;;;17.80;51.70;;;;;;5056092;28;20610;-70
2021/04/29 12:08:05;;;;;;;2.53;1.80;;;17.90;51.60;;;;;;5093716;28;20209;-71
2021/04/29 12:10:54;;;;;;;2.38;2.17;;;17.90;51.60;;;;;;5059928;28;20170;-70
2021/04/29 12:13:38;;;;;;;2.13;1.90;;;17.90;51.50;;;;;;5061219;28;20161;-70
2021/04/29 12:16:08;;;;;;;2.78;2.20;;;17.90;51.50;;;;;;5094706;28;20218;-71
2021/04/29 12:18:34;;;;;;;2.00;1.90;;;17.90;51.50;;;;;;5060334;28;20651;-70
2021/04/29 12:20:59;;;;;;;3.88;2.10;;;17.80;51.40;;;;;;5059347;28;20621;-67
2021/04/29 12:23:25;;;;;;;2.63;2.42;;;17.90;51.70;;;;;;5059875;28;20235;-66
2021/04/29 12:25:57;;;;;;;2.53;2.33;;;17.90;51.50;;;;;;5075891;28;20180;-69
2021/04/29 12:28:27;;;;;;;3.38;2.00;;;17.80;51.40;;;;;;5059054;28;20292;-73
2021/04/29 12:30:53;;;;;;;2.20;2.00;;;17.90;51.50;;;;;;5043584;28;20571;-74
2021/04/29 12:33:20;;;;;;;4.82;2.03;;;17.80;51.40;;;;;;5039789;28;20170;-69
2021/04/29 12:35:45;;;;;;;3.00;2.22;;;17.80;51.40;;;;;;5041122;28;20185;-67
2021/04/29 12:38:11;;;;;;;2.28;2.08;;;17.80;51.40;;;;;;5094135;28;20166;-67
2021/04/29 12:40:37;;;;;;;2.83;2.38;;;17.80;51.50;;;;;;5059442;28;20215;-66
2021/04/29 12:43:21;;;;;;;3.40;2.05;;;17.80;51.50;;;;;;5075449;28;20166;-68
2021/04/29 12:45:56;;;;;;;3.75;2.10;;;17.80;51.50;;;;;;5059945;28;20170;-71
2021/04/29 12:48:36;;;;;;;2.58;2.35;;;17.80;51.40;;;;;;5058676;28;20861;-67